Time,TemperatureF,DewpointF,PressureIn,WindDirection,WindDirectionDegrees,WindSpeedMPH,WindSpeedGustMPH,Humidity,HourlyPrecipIn,Conditions,Clouds,dailyrainin,SoftwareType,DateUTC
2013-07-21 00:01:00,76.0,28.0,29.95,WSW,246,6.0,11.0,17,0.00,,,0.00,,2013-07-21 06:01:00,
2013-07-21 00:11:00,76.0,28.0,29.95,SW,232,5.0,11.0,17,0.00,,,0.00,,2013-07-21 06:11:00,
2013-07-21 00:21:00,75.0,27.0,29.95,WSW,239,6.0,11.0,17,0.00,,,0.00,,2013-07-21 06:21:00,
2013-07-21 00:32:00,74.0,26.0,29.95,SW,225,4.0,8.0,17,0.00,,,0.00,,2013-07-21 06:32:00,
2013-07-21 00:42:00,73.0,26.0,29.95,WSW,257,4.0,7.0,17,0.00,,,0.00,,2013-07-21 06:42:00,
2013-07-21 00:52:00,73.0,26.0,29.95,WSW,244,6.0,9.0,17,0.00,,,0.00,,2013-07-21 06:52:00,
2013-07-21 01:01:00,74.0,25.0,29.95,SW,235,6.0,10.0,16,0.00,,,0.00,,2013-07-21 07:01:00,
2013-07-21 01:11:00,74.0,25.0,29.95,SW,234,7.0,9.0,16,0.00,,,0.00,,2013-07-21 07:11:00,
2013-07-21 01:32:00,73.0,24.0,29.95,SW,222,5.0,9.0,16,0.00,,,0.00,,2013-07-21 07:32:00,
2013-07-21 01:43:00,73.0,24.0,29.95,SW,229,7.0,10.0,16,0.00,,,0.00,,2013-07-21 07:43:00,
2013-07-21 02:01:00,73.0,24.0,29.94,SSW,209,0.0,7.0,16,0.00,,,0.00,,2013-07-21 08:01:00,
2013-07-21 02:11:00,73.0,24.0,29.94,WSW,238,5.0,9.0,16,0.00,,,0.00,,2013-07-21 08:11:00,
2013-07-21 02:32:00,71.0,24.0,29.95,NW,310,0.0,4.0,17,0.00,,,0.00,,2013-07-21 08:32:00,
2013-07-21 02:52:00,73.0,24.0,29.95,WSW,242,2.0,5.0,16,0.00,,,0.00,,2013-07-21 08:52:00,
2013-07-21 03:02:00,72.0,23.0,29.95,WSW,244,2.0,4.0,16,0.00,,,0.00,,2013-07-21 09:02:00,
2013-07-21 04:22:00,69.0,22.0,29.95,WSW,252,4.0,6.0,17,0.00,,,0.00,,2013-07-21 10:22:00,
2013-07-21 04:43:00,68.0,23.0,29.95,West,265,5.0,7.0,18,0.00,,,0.00,,2013-07-21 10:43:00,
2013-07-21 04:52:00,68.0,22.0,29.96,West,278,7.0,9.0,17,0.00,,,0.00,,2013-07-21 10:52:00,
2013-07-21 05:02:00,68.0,22.0,29.96,West,270,6.0,9.0,17,0.00,,,0.00,,2013-07-21 11:02:00,
2013-07-21 05:32:00,68.0,22.0,29.96,West,261,8.0,11.0,17,0.00,,,0.00,,2013-07-21 11:32:00,
2013-07-21 05:52:00,68.0,23.0,29.96,West,265,9.0,14.0,18,0.00,,,0.00,,2013-07-21 11:52:00,
2013-07-21 06:01:00,68.0,23.0,29.96,West,261,7.0,12.0,18,0.00,,,0.00,,2013-07-21 12:01:00,
2013-07-21 06:22:00,67.0,23.0,29.97,West,259,5.0,8.0,19,0.00,,,0.00,,2013-07-21 12:22:00,
2013-07-21 06:53:00,67.0,23.0,29.98,WSW,248,6.0,10.0,19,0.00,,,0.00,,2013-07-21 12:53:00,
2013-07-21 07:01:00,66.0,24.0,29.98,WSW,244,5.0,7.0,20,0.00,,,0.00,,2013-07-21 13:01:00,
2013-07-21 07:11:00,65.0,24.0,29.98,WSW,258,5.0,9.0,21,0.00,,,0.00,,2013-07-21 13:11:00,
2013-07-21 07:42:00,67.0,25.0,29.99,SW,229,8.0,12.0,20,0.00,,,0.00,,2013-07-21 13:42:00,
2013-07-21 07:52:00,67.0,26.0,29.99,WSW,246,8.0,13.0,21,0.00,,,0.00,,2013-07-21 13:52:00,
2013-07-21 08:01:00,67.0,26.0,29.99,WSW,246,6.0,9.0,21,0.00,,,0.00,,2013-07-21 14:01:00,
2013-07-21 08:43:00,69.0,27.0,30.00,WSW,251,6.0,10.0,21,0.00,,,0.00,,2013-07-21 14:43:00,
2013-07-21 09:52:00,72.0,27.0,30.01,WSW,256,6.0,10.0,19,0.00,,,0.00,,2013-07-21 15:52:00,
2013-07-21 10:01:00,73.0,28.0,30.01,WSW,254,8.0,12.0,19,0.00,,,0.00,,2013-07-21 16:01:00,
2013-07-21 10:11:00,73.0,28.0,30.01,WNW,286,7.0,12.0,19,0.00,,,0.00,,2013-07-21 16:11:00,
2013-07-21 10:32:00,74.0,26.0,30.01,West,274,10.0,14.0,17,0.00,,,0.00,,2013-07-21 16:32:00,
2013-07-21 10:42:00,74.0,26.0,30.01,WSW,241,9.0,14.0,17,0.00,,,0.00,,2013-07-21 16:42:00,
2013-07-21 10:52:00,75.0,27.0,30.01,West,268,9.0,13.0,17,0.00,,,0.00,,2013-07-21 16:52:00,
2013-07-21 11:01:00,75.0,27.0,30.01,WSW,248,8.0,14.0,17,0.00,,,0.00,,2013-07-21 17:01:00,
2013-07-21 11:11:00,75.0,30.0,30.01,West,259,8.0,13.0,19,0.00,,,0.00,,2013-07-21 17:11:00,
2013-07-21 11:42:00,76.0,31.0,30.01,West,265,8.0,13.0,19,0.00,,,0.00,,2013-07-21 17:42:00,
2013-07-21 11:53:00,76.0,28.0,30.01,WSW,249,8.0,14.0,17,0.00,,,0.00,,2013-07-21 17:53:00,
2013-07-21 12:01:00,77.0,29.0,30.01,WSW,248,8.0,14.0,17,0.00,,,0.00,,2013-07-21 18:01:00,
2013-07-21 12:11:00,77.0,27.0,30.01,West,263,8.0,12.0,16,0.00,,,0.00,,2013-07-21 18:11:00,
2013-07-21 12:32:00,79.0,29.0,30.01,West,273,9.0,14.0,16,0.00,,,0.00,,2013-07-21 18:32:00,
2013-07-21 12:43:00,79.0,26.0,30.01,West,279,10.0,16.0,14,0.00,,,0.00,,2013-07-21 18:43:00,
2013-07-21 12:52:00,79.0,26.0,30.01,SW,217,6.0,16.0,14,0.00,,,0.00,,2013-07-21 18:52:00,
2013-07-21 13:01:00,80.0,28.0,30.01,WSW,250,6.0,17.0,15,0.00,,,0.00,,2013-07-21 19:01:00,
2013-07-21 13:11:00,81.0,26.0,30.01,SW,223,8.0,19.0,13,0.00,,,0.00,,2013-07-21 19:11:00,
2013-07-21 13:22:00,80.0,23.0,30.01,WSW,248,11.0,20.0,12,0.00,,,0.00,,2013-07-21 19:22:00,
2013-07-21 13:32:00,81.0,24.0,30.00,WNW,289,8.0,18.0,12,0.00,,,0.00,,2013-07-21 19:32:00,
2013-07-21 13:42:00,81.0,26.0,30.00,SW,234,11.0,17.0,13,0.00,,,0.00,,2013-07-21 19:42:00,
2013-07-21 13:52:00,82.0,26.0,30.00,West,266,15.0,27.0,13,0.00,,,0.00,,2013-07-21 19:52:00,
2013-07-21 14:01:00,81.0,22.0,30.00,WSW,243,12.0,18.0,11,0.00,,,0.00,,2013-07-21 20:01:00,
2013-07-21 14:11:00,81.0,24.0,30.00,WSW,238,8.0,18.0,12,0.00,,,0.00,,2013-07-21 20:11:00,
2013-07-21 14:42:00,83.0,23.0,30.00,WSW,237,11.0,19.0,11,0.00,,,0.00,,2013-07-21 20:42:00,
2013-07-21 15:01:00,83.0,23.0,30.00,West,273,12.0,19.0,11,0.00,,,0.00,,2013-07-21 21:01:00,
2013-07-21 15:11:00,83.0,25.0,30.00,WSW,258,11.0,22.0,12,0.00,,,0.00,,2013-07-21 21:11:00,
2013-07-21 15:22:00,84.0,22.0,30.00,WSW,243,13.0,22.0,10,0.00,,,0.00,,2013-07-21 21:22:00,
2013-07-21 16:11:00,85.0,17.0,29.98,WNW,295,14.0,19.0,8,0.00,,,0.00,,2013-07-21 22:11:00,
2013-07-21 16:21:00,85.0,20.0,29.98,WSW,246,12.0,20.0,9,0.00,,,0.00,,2013-07-21 22:21:00,
2013-07-21 16:42:00,85.0,17.0,29.98,WSW,252,12.0,19.0,8,0.00,,,0.00,,2013-07-21 22:42:00,
2013-07-21 16:52:00,85.0,22.0,29.97,South,189,11.0,19.0,10,0.00,,,0.00,,2013-07-21 22:52:00,
2013-07-21 17:01:00,85.0,22.0,29.97,WSW,257,10.0,20.0,10,0.00,,,0.00,,2013-07-21 23:01:00,
2013-07-21 17:11:00,85.0,20.0,29.97,SW,225,12.0,22.0,9,0.00,,,0.00,,2013-07-21 23:11:00,
2013-07-21 17:42:00,85.0,20.0,29.96,WSW,240,10.0,18.0,9,0.00,,,0.00,,2013-07-21 23:42:00,
2013-07-21 17:52:00,85.0,17.0,29.96,SW,233,10.0,21.0,8,0.00,,,0.00,,2013-07-21 23:52:00,
2013-07-21 18:11:00,85.0,17.0,29.96,WSW,256,9.0,16.0,8,0.00,,,0.00,,2013-07-22 00:11:00,
2013-07-21 18:22:00,85.0,17.0,29.96,WSW,240,12.0,19.0,8,0.00,,,0.00,,2013-07-22 00:22:00,
2013-07-21 18:32:00,84.0,13.0,29.96,SW,234,13.0,19.0,7,0.00,,,0.00,,2013-07-22 00:32:00,
2013-07-21 18:42:00,84.0,13.0,29.95,WSW,252,12.0,17.0,7,0.00,,,0.00,,2013-07-22 00:42:00,
2013-07-21 18:52:00,84.0,16.0,29.95,West,267,12.0,18.0,8,0.00,,,0.00,,2013-07-22 00:52:00,
2013-07-21 19:01:00,84.0,19.0,29.94,West,275,11.0,16.0,9,0.00,,,0.00,,2013-07-22 01:01:00,
2013-07-21 19:11:00,84.0,19.0,29.94,SW,236,13.0,19.0,9,0.00,,,0.00,,2013-07-22 01:11:00,
2013-07-21 19:42:00,82.0,18.0,29.95,WSW,257,11.0,18.0,9,0.00,,,0.00,,2013-07-22 01:42:00,
2013-07-21 20:01:00,82.0,18.0,29.95,WSW,257,7.0,16.0,9,0.00,,,0.00,,2013-07-22 02:01:00,
2013-07-21 20:11:00,82.0,18.0,29.95,WSW,250,8.0,13.0,9,0.00,,,0.00,,2013-07-22 02:11:00,
2013-07-21 20:32:00,81.0,14.0,29.95,SW,228,7.0,11.0,8,0.00,,,0.00,,2013-07-22 02:32:00,
2013-07-21 20:43:00,80.0,16.0,29.96,SW,221,7.0,12.0,9,0.00,,,0.00,,2013-07-22 02:43:00,
2013-07-21 20:52:00,79.0,15.0,29.96,SW,229,5.0,12.0,9,0.00,,,0.00,,2013-07-22 02:52:00,
2013-07-21 21:01:00,78.0,17.0,29.96,SW,226,8.0,10.0,10,0.00,,,0.00,,2013-07-22 03:01:00,
2013-07-21 21:11:00,77.0,16.0,29.96,SSW,209,5.0,11.0,10,0.00,,,0.00,,2013-07-22 03:11:00,
2013-07-21 21:22:00,77.0,18.0,29.96,SW,228,5.0,7.0,11,0.00,,,0.00,,2013-07-22 03:22:00,
2013-07-21 21:32:00,77.0,16.0,29.96,SW,217,7.0,12.0,10,0.00,,,0.00,,2013-07-22 03:32:00,
2013-07-21 21:43:00,76.0,18.0,29.96,SW,231,8.0,12.0,11,0.00,,,0.00,,2013-07-22 03:43:00,
2013-07-21 21:52:00,77.0,18.0,29.96,WSW,248,7.0,15.0,11,0.00,,,0.00,,2013-07-22 03:52:00,
2013-07-21 22:01:00,77.0,18.0,29.96,WSW,239,9.0,14.0,11,0.00,,,0.00,,2013-07-22 04:01:00,
2013-07-21 22:11:00,77.0,18.0,29.97,WSW,241,7.0,12.0,11,0.00,,,0.00,,2013-07-22 04:11:00,
2013-07-21 22:22:00,76.0,18.0,29.97,SW,226,8.0,12.0,11,0.00,,,0.00,,2013-07-22 04:22:00,
2013-07-21 22:33:00,77.0,18.0,29.98,SW,229,10.0,17.0,11,0.00,,,0.00,,2013-07-22 04:33:00,
2013-07-21 22:42:00,77.0,18.0,29.98,SW,233,7.0,16.0,11,0.00,,,0.00,,2013-07-22 04:42:00,
2013-07-21 23:01:00,76.0,18.0,29.98,SW,234,7.0,10.0,11,0.00,,,0.00,,2013-07-22 05:01:00,
2013-07-21 23:11:00,76.0,18.0,29.98,WSW,248,6.0,16.0,11,0.00,,,0.00,,2013-07-22 05:11:00,
2013-07-21 23:32:00,76.0,16.0,29.99,SW,223,6.0,10.0,10,0.00,,,0.00,,2013-07-22 05:32:00,
2013-07-21 23:42:00,75.0,15.0,29.99,SW,227,6.0,9.0,10,0.00,,,0.00,,2013-07-22 05:42:00,
2013-07-21 23:52:00,75.0,15.0,29.99,SSW,213,5.0,7.0,10,0.00,,,0.00,,2013-07-22 05:52:00,